sensor_id;sensor_type;location;lat;lon;timestamp;P1;durP1;ratioP1;P2;durP2;ratioP2
25049;SDS011;13046;49.814;9.918;2023-07-30T00:00:01;4.10;;;3.70;;
25049;SDS011;13046;49.814;9.918;2023-07-30T00:02:28;4.65;;;4.18;;
25049;SDS011;13046;49.814;9.918;2023-07-30T00:04:54;4.38;;;3.97;;
25049;SDS011;13046;49.814;9.918;2023-07-30T00:07:20;4.95;;;4.40;;
25049;SDS011;13046;49.814;9.918;2023-07-30T00:09:46;4.43;;;4.13;;
25049;SDS011;13046;49.814;9.918;2023-07-30T00:12:12;5.68;;;4.15;;
25049;SDS011;13046;49.814;9.918;2023-07-30T00:14:38;5.55;;;4.75;;
25049;SDS011;13046;49.814;9.918;2023-07-30T00:17:04;3.47;;;3.17;;
25049;SDS011;13046;49.814;9.918;2023-07-30T00:19:30;3.00;;;2.70;;
25049;SDS011;13046;49.814;9.918;2023-07-30T00:21:56;3.15;;;2.85;;
25049;SDS011;13046;49.814;9.918;2023-07-30T00:24:22;12.07;;;8.73;;
25049;SDS011;13046;49.814;9.918;2023-07-30T00:26:48;8.52;;;7.03;;
25049;SDS011;13046;49.814;9.918;2023-07-30T00:29:14;3.50;;;3.20;;
25049;SDS011;13046;49.814;9.918;2023-07-30T00:31:40;6.25;;;4.25;;
25049;SDS011;13046;49.814;9.918;2023-07-30T00:34:06;3.78;;;2.85;;
25049;SDS011;13046;49.814;9.918;2023-07-30T00:36:32;2.25;;;1.70;;
25049;SDS011;13046;49.814;9.918;2023-07-30T00:38:58;2.88;;;1.75;;
25049;SDS011;13046;49.814;9.918;2023-07-30T00:41:24;3.50;;;2.03;;
25049;SDS011;13046;49.814;9.918;2023-07-30T00:43:50;2.70;;;2.03;;
25049;SDS011;13046;49.814;9.918;2023-07-30T00:46:16;1.83;;;1.70;;
25049;SDS011;13046;49.814;9.918;2023-07-30T00:48:43;2.05;;;1.63;;
25049;SDS011;13046;49.814;9.918;2023-07-30T00:51:10;1.73;;;1.55;;
25049;SDS011;13046;49.814;9.918;2023-07-30T00:53:37;3.65;;;1.95;;
25049;SDS011;13046;49.814;9.918;2023-07-30T00:56:03;5.13;;;1.80;;
25049;SDS011;13046;49.814;9.918;2023-07-30T00:58:31;1.83;;;1.73;;
25049;SDS011;13046;49.814;9.918;2023-07-30T01:00:57;2.83;;;1.60;;
25049;SDS011;13046;49.814;9.918;2023-07-30T01:03:23;5.00;;;1.95;;
25049;SDS011;13046;49.814;9.918;2023-07-30T01:05:50;2.28;;;1.73;;
25049;SDS011;13046;49.814;9.918;2023-07-30T01:08:16;2.35;;;1.63;;
25049;SDS011;13046;49.814;9.918;2023-07-30T01:10:42;2.42;;;1.55;;
25049;SDS011;13046;49.814;9.918;2023-07-30T01:13:08;2.03;;;1.60;;
25049;SDS011;13046;49.814;9.918;2023-07-30T01:15:36;3.33;;;1.60;;
25049;SDS011;13046;49.814;9.918;2023-07-30T01:18:03;2.00;;;1.67;;
25049;SDS011;13046;49.814;9.918;2023-07-30T01:20:32;3.88;;;2.03;;
25049;SDS011;13046;49.814;9.918;2023-07-30T01:22:59;1.88;;;1.67;;
25049;SDS011;13046;49.814;9.918;2023-07-30T01:25:26;2.83;;;2.47;;
25049;SDS011;13046;49.814;9.918;2023-07-30T01:27:54;3.70;;;1.80;;
25049;SDS011;13046;49.814;9.918;2023-07-30T01:30:32;2.25;;;1.60;;
25049;SDS011;13046;49.814;9.918;2023-07-30T01:32:59;2.05;;;1.50;;
25049;SDS011;13046;49.814;9.918;2023-07-30T01:35:27;2.55;;;1.77;;
25049;SDS011;13046;49.814;9.918;2023-07-30T01:37:54;3.38;;;1.85;;
25049;SDS011;13046;49.814;9.918;2023-07-30T01:40:20;6.15;;;1.50;;
25049;SDS011;13046;49.814;9.918;2023-07-30T01:42:48;3.53;;;1.70;;
25049;SDS011;13046;49.814;9.918;2023-07-30T01:45:15;2.55;;;1.50;;
25049;SDS011;13046;49.814;9.918;2023-07-30T01:47:42;4.85;;;1.25;;
25049;SDS011;13046;49.814;9.918;2023-07-30T01:50:09;2.15;;;1.67;;
25049;SDS011;13046;49.814;9.918;2023-07-30T01:52:35;3.20;;;1.75;;
25049;SDS011;13046;49.814;9.918;2023-07-30T01:55:01;1.70;;;1.60;;
25049;SDS011;13046;49.814;9.918;2023-07-30T01:57:28;1.58;;;1.40;;
25049;SDS011;13046;49.814;9.918;2023-07-30T01:59:54;4.20;;;1.85;;
25049;SDS011;13046;49.814;9.918;2023-07-30T02:02:20;1.98;;;1.50;;
25049;SDS011;13046;49.814;9.918;2023-07-30T02:04:46;2.05;;;1.48;;
25049;SDS011;13046;49.814;9.918;2023-07-30T02:07:12;3.47;;;1.80;;
25049;SDS011;13046;49.814;9.918;2023-07-30T02:09:38;2.40;;;1.60;;
25049;SDS011;13046;49.814;9.918;2023-07-30T02:12:04;5.20;;;1.80;;
25049;SDS011;13046;49.814;9.918;2023-07-30T02:14:30;2.08;;;1.73;;
25049;SDS011;13046;49.814;9.918;2023-07-30T02:17:00;2.10;;;1.83;;
25049;SDS011;13046;49.814;9.918;2023-07-30T02:19:26;19.83;;;3.25;;
25049;SDS011;13046;49.814;9.918;2023-07-30T02:21:52;4.28;;;1.90;;
25049;SDS011;13046;49.814;9.918;2023-07-30T02:24:18;2.90;;;1.98;;
25049;SDS011;13046;49.814;9.918;2023-07-30T02:26:44;3.60;;;1.60;;
25049;SDS011;13046;49.814;9.918;2023-07-30T02:29:10;1.92;;;1.50;;
25049;SDS011;13046;49.814;9.918;2023-07-30T02:31:36;3.90;;;1.65;;
25049;SDS011;13046;49.814;9.918;2023-07-30T02:34:02;4.20;;;1.83;;
25049;SDS011;13046;49.814;9.918;2023-07-30T02:36:28;1.95;;;1.75;;
25049;SDS011;13046;49.814;9.918;2023-07-30T02:38:54;2.90;;;2.33;;
25049;SDS011;13046;49.814;9.918;2023-07-30T02:41:20;4.05;;;1.77;;
25049;SDS011;13046;49.814;9.918;2023-07-30T02:43:46;2.13;;;1.60;;
25049;SDS011;13046;49.814;9.918;2023-07-30T02:46:12;5.38;;;2.45;;
25049;SDS011;13046;49.814;9.918;2023-07-30T02:48:38;2.20;;;1.92;;
25049;SDS011;13046;49.814;9.918;2023-07-30T02:51:04;3.67;;;1.50;;
25049;SDS011;13046;49.814;9.918;2023-07-30T02:53:31;2.65;;;2.45;;
25049;SDS011;13046;49.814;9.918;2023-07-30T02:55:57;6.65;;;2.58;;
25049;SDS011;13046;49.814;9.918;2023-07-30T02:58:23;3.67;;;2.67;;
25049;SDS011;13046;49.814;9.918;2023-07-30T03:00:49;2.28;;;2.08;;
25049;SDS011;13046;49.814;9.918;2023-07-30T03:03:16;3.03;;;2.20;;
25049;SDS011;13046;49.814;9.918;2023-07-30T03:05:42;3.72;;;2.38;;
25049;SDS011;13046;49.814;9.918;2023-07-30T03:08:08;4.70;;;2.78;;
25049;SDS011;13046;49.814;9.918;2023-07-30T03:10:36;4.88;;;2.70;;
25049;SDS011;13046;49.814;9.918;2023-07-30T03:13:02;5.47;;;3.03;;
25049;SDS011;13046;49.814;9.918;2023-07-30T03:15:28;2.85;;;2.45;;
25049;SDS011;13046;49.814;9.918;2023-07-30T03:17:54;2.50;;;2.30;;
25049;SDS011;13046;49.814;9.918;2023-07-30T03:20:21;4.30;;;2.67;;
25049;SDS011;13046;49.814;9.918;2023-07-30T03:22:47;3.20;;;2.50;;
25049;SDS011;13046;49.814;9.918;2023-07-30T03:25:13;2.85;;;2.58;;
25049;SDS011;13046;49.814;9.918;2023-07-30T03:27:39;4.03;;;2.75;;
25049;SDS011;13046;49.814;9.918;2023-07-30T03:30:06;4.50;;;2.90;;
25049;SDS011;13046;49.814;9.918;2023-07-30T03:32:32;5.88;;;2.67;;
25049;SDS011;13046;49.814;9.918;2023-07-30T03:34:58;5.43;;;2.95;;
25049;SDS011;13046;49.814;9.918;2023-07-30T03:37:24;3.67;;;2.70;;
25049;SDS011;13046;49.814;9.918;2023-07-30T03:39:50;7.20;;;3.67;;
25049;SDS011;13046;49.814;9.918;2023-07-30T03:42:16;7.45;;;4.22;;
25049;SDS011;13046;49.814;9.918;2023-07-30T03:44:42;5.50;;;2.67;;
25049;SDS011;13046;49.814;9.918;2023-07-30T03:47:08;6.15;;;3.75;;
25049;SDS011;13046;49.814;9.918;2023-07-30T03:49:34;3.70;;;3.35;;
25049;SDS011;13046;49.814;9.918;2023-07-30T03:52:00;4.32;;;3.03;;
25049;SDS011;13046;49.814;9.918;2023-07-30T03:54:26;3.33;;;2.50;;
25049;SDS011;13046;49.814;9.918;2023-07-30T03:56:53;4.53;;;2.83;;
25049;SDS011;13046;49.814;9.918;2023-07-30T03:59:19;4.60;;;2.95;;
25049;SDS011;13046;49.814;9.918;2023-07-30T04:01:45;4.32;;;2.53;;
25049;SDS011;13046;49.814;9.918;2023-07-30T04:04:11;3.88;;;3.58;;
25049;SDS011;13046;49.814;9.918;2023-07-30T04:06:37;5.43;;;3.10;;
25049;SDS011;13046;49.814;9.918;2023-07-30T04:09:03;7.22;;;3.95;;
25049;SDS011;13046;49.814;9.918;2023-07-30T04:11:29;5.55;;;3.45;;
25049;SDS011;13046;49.814;9.918;2023-07-30T04:13:56;3.90;;;3.38;;
25049;SDS011;13046;49.814;9.918;2023-07-30T04:16:22;3.15;;;2.85;;
25049;SDS011;13046;49.814;9.918;2023-07-30T04:18:48;3.83;;;3.53;;
25049;SDS011;13046;49.814;9.918;2023-07-30T04:21:14;4.97;;;3.58;;
25049;SDS011;13046;49.814;9.918;2023-07-30T04:23:40;3.65;;;3.28;;
25049;SDS011;13046;49.814;9.918;2023-07-30T04:26:06;4.00;;;3.55;;
25049;SDS011;13046;49.814;9.918;2023-07-30T04:28:32;4.60;;;3.35;;
25049;SDS011;13046;49.814;9.918;2023-07-30T04:30:59;7.22;;;3.40;;
25049;SDS011;13046;49.814;9.918;2023-07-30T04:33:25;4.47;;;3.40;;
25049;SDS011;13046;49.814;9.918;2023-07-30T04:35:52;5.57;;;3.70;;
25049;SDS011;13046;49.814;9.918;2023-07-30T04:38:19;4.60;;;3.88;;
25049;SDS011;13046;49.814;9.918;2023-07-30T04:40:46;3.42;;;2.85;;
25049;SDS011;13046;49.814;9.918;2023-07-30T04:43:13;4.35;;;3.35;;
25049;SDS011;13046;49.814;9.918;2023-07-30T04:45:40;3.67;;;2.80;;
25049;SDS011;13046;49.814;9.918;2023-07-30T04:48:06;7.13;;;3.50;;
25049;SDS011;13046;49.814;9.918;2023-07-30T04:50:32;4.28;;;3.45;;
25049;SDS011;13046;49.814;9.918;2023-07-30T04:52:58;7.78;;;2.88;;
25049;SDS011;13046;49.814;9.918;2023-07-30T04:55:24;3.35;;;3.15;;
25049;SDS011;13046;49.814;9.918;2023-07-30T04:57:50;6.20;;;3.85;;
25049;SDS011;13046;49.814;9.918;2023-07-30T05:00:16;4.03;;;3.63;;
25049;SDS011;13046;49.814;9.918;2023-07-30T05:02:42;5.25;;;3.60;;
25049;SDS011;13046;49.814;9.918;2023-07-30T05:05:09;5.68;;;3.60;;
25049;SDS011;13046;49.814;9.918;2023-07-30T05:07:35;4.65;;;3.47;;
25049;SDS011;13046;49.814;9.918;2023-07-30T05:10:01;4.07;;;3.60;;
25049;SDS011;13046;49.814;9.918;2023-07-30T05:12:27;5.93;;;3.38;;
25049;SDS011;13046;49.814;9.918;2023-07-30T05:14:53;4.85;;;4.35;;
25049;SDS011;13046;49.814;9.918;2023-07-30T05:17:19;4.57;;;4.15;;
25049;SDS011;13046;49.814;9.918;2023-07-30T05:19:46;5.35;;;4.03;;
25049;SDS011;13046;49.814;9.918;2023-07-30T05:22:12;4.47;;;3.70;;
25049;SDS011;13046;49.814;9.918;2023-07-30T05:24:38;4.15;;;3.75;;
25049;SDS011;13046;49.814;9.918;2023-07-30T05:27:04;3.92;;;3.53;;
25049;SDS011;13046;49.814;9.918;2023-07-30T05:29:30;4.72;;;3.85;;
25049;SDS011;13046;49.814;9.918;2023-07-30T05:31:56;4.28;;;3.35;;
25049;SDS011;13046;49.814;9.918;2023-07-30T05:34:22;5.45;;;3.38;;
25049;SDS011;13046;49.814;9.918;2023-07-30T05:36:48;5.43;;;3.47;;
25049;SDS011;13046;49.814;9.918;2023-07-30T05:39:14;4.57;;;3.50;;
25049;SDS011;13046;49.814;9.918;2023-07-30T05:41:41;4.00;;;3.60;;
25049;SDS011;13046;49.814;9.918;2023-07-30T05:44:07;2.88;;;2.67;;
25049;SDS011;13046;49.814;9.918;2023-07-30T05:46:33;3.53;;;3.22;;
25049;SDS011;13046;49.814;9.918;2023-07-30T05:48:59;5.50;;;3.83;;
25049;SDS011;13046;49.814;9.918;2023-07-30T05:51:25;3.90;;;3.60;;
25049;SDS011;13046;49.814;9.918;2023-07-30T05:53:51;5.20;;;3.53;;
25049;SDS011;13046;49.814;9.918;2023-07-30T05:56:17;3.55;;;3.20;;
25049;SDS011;13046;49.814;9.918;2023-07-30T05:58:45;4.65;;;3.58;;
25049;SDS011;13046;49.814;9.918;2023-07-30T06:01:11;3.42;;;3.17;;
25049;SDS011;13046;49.814;9.918;2023-07-30T06:03:37;6.00;;;3.65;;
25049;SDS011;13046;49.814;9.918;2023-07-30T06:06:03;6.65;;;3.60;;
25049;SDS011;13046;49.814;9.918;2023-07-30T06:08:29;5.43;;;3.63;;
25049;SDS011;13046;49.814;9.918;2023-07-30T06:11:00;3.35;;;3.05;;
25049;SDS011;13046;49.814;9.918;2023-07-30T06:13:27;4.00;;;2.70;;
25049;SDS011;13046;49.814;9.918;2023-07-30T06:15:53;4.15;;;2.67;;
25049;SDS011;13046;49.814;9.918;2023-07-30T06:18:19;5.90;;;2.90;;
25049;SDS011;13046;49.814;9.918;2023-07-30T06:20:45;3.70;;;3.40;;
25049;SDS011;13046;49.814;9.918;2023-07-30T06:23:11;3.22;;;3.00;;
25049;SDS011;13046;49.814;9.918;2023-07-30T06:25:37;3.13;;;2.88;;
25049;SDS011;13046;49.814;9.918;2023-07-30T06:28:04;6.03;;;2.72;;
25049;SDS011;13046;49.814;9.918;2023-07-30T06:30:31;2.88;;;2.67;;
25049;SDS011;13046;49.814;9.918;2023-07-30T06:32:57;3.17;;;2.88;;
25049;SDS011;13046;49.814;9.918;2023-07-30T06:35:23;4.65;;;3.40;;
25049;SDS011;13046;49.814;9.918;2023-07-30T06:37:50;3.13;;;2.85;;
25049;SDS011;13046;49.814;9.918;2023-07-30T06:40:16;3.60;;;3.22;;
25049;SDS011;13046;49.814;9.918;2023-07-30T06:42:42;3.47;;;3.15;;
25049;SDS011;13046;49.814;9.918;2023-07-30T06:45:08;3.17;;;2.97;;
25049;SDS011;13046;49.814;9.918;2023-07-30T06:47:35;2.80;;;2.60;;
25049;SDS011;13046;49.814;9.918;2023-07-30T06:50:01;3.08;;;2.85;;
25049;SDS011;13046;49.814;9.918;2023-07-30T06:52:28;3.58;;;3.28;;
25049;SDS011;13046;49.814;9.918;2023-07-30T06:54:54;4.13;;;3.42;;
25049;SDS011;13046;49.814;9.918;2023-07-30T06:57:20;5.32;;;2.50;;
25049;SDS011;13046;49.814;9.918;2023-07-30T06:59:46;3.58;;;3.28;;
25049;SDS011;13046;49.814;9.918;2023-07-30T07:02:12;3.38;;;2.92;;
25049;SDS011;13046;49.814;9.918;2023-07-30T07:04:38;5.45;;;2.90;;
25049;SDS011;13046;49.814;9.918;2023-07-30T07:07:04;4.85;;;3.60;;
25049;SDS011;13046;49.814;9.918;2023-07-30T07:09:30;3.35;;;2.63;;
25049;SDS011;13046;49.814;9.918;2023-07-30T07:11:56;3.25;;;2.95;;
25049;SDS011;13046;49.814;9.918;2023-07-30T07:14:22;3.63;;;3.33;;
25049;SDS011;13046;49.814;9.918;2023-07-30T07:16:48;3.97;;;3.53;;
25049;SDS011;13046;49.814;9.918;2023-07-30T07:19:14;3.72;;;3.38;;
25049;SDS011;13046;49.814;9.918;2023-07-30T07:21:40;3.55;;;2.65;;
25049;SDS011;13046;49.814;9.918;2023-07-30T07:24:06;3.78;;;2.75;;
25049;SDS011;13046;49.814;9.918;2023-07-30T07:26:33;3.25;;;3.00;;
25049;SDS011;13046;49.814;9.918;2023-07-30T07:28:59;4.10;;;2.53;;
25049;SDS011;13046;49.814;9.918;2023-07-30T07:31:25;6.15;;;2.63;;
25049;SDS011;13046;49.814;9.918;2023-07-30T07:33:52;3.05;;;2.65;;
25049;SDS011;13046;49.814;9.918;2023-07-30T07:36:19;3.45;;;3.15;;
25049;SDS011;13046;49.814;9.918;2023-07-30T07:38:45;4.30;;;3.00;;
25049;SDS011;13046;49.814;9.918;2023-07-30T07:41:15;2.92;;;2.72;;
25049;SDS011;13046;49.814;9.918;2023-07-30T07:43:41;4.22;;;3.40;;
25049;SDS011;13046;49.814;9.918;2023-07-30T07:46:08;4.15;;;3.00;;
25049;SDS011;13046;49.814;9.918;2023-07-30T07:48:41;3.45;;;3.00;;
25049;SDS011;13046;49.814;9.918;2023-07-30T07:51:11;3.20;;;2.90;;
25049;SDS011;13046;49.814;9.918;2023-07-30T07:53:37;3.70;;;3.28;;
25049;SDS011;13046;49.814;9.918;2023-07-30T07:56:03;2.47;;;2.28;;
25049;SDS011;13046;49.814;9.918;2023-07-30T07:58:30;3.47;;;3.25;;
25049;SDS011;13046;49.814;9.918;2023-07-30T08:00:57;4.03;;;2.70;;
25049;SDS011;13046;49.814;9.918;2023-07-30T08:03:24;2.85;;;2.58;;
25049;SDS011;13046;49.814;9.918;2023-07-30T08:05:52;2.45;;;2.25;;
25049;SDS011;13046;49.814;9.918;2023-07-30T08:08:18;3.67;;;2.38;;
25049;SDS011;13046;49.814;9.918;2023-07-30T08:10:46;6.80;;;2.40;;
25049;SDS011;13046;49.814;9.918;2023-07-30T08:13:13;2.63;;;2.42;;
25049;SDS011;13046;49.814;9.918;2023-07-30T08:15:49;2.92;;;1.65;;
25049;SDS011;13046;49.814;9.918;2023-07-30T08:18:15;2.80;;;2.40;;
25049;SDS011;13046;49.814;9.918;2023-07-30T08:20:41;2.33;;;2.17;;
25049;SDS011;13046;49.814;9.918;2023-07-30T08:23:07;2.20;;;1.98;;
25049;SDS011;13046;49.814;9.918;2023-07-30T08:25:33;2.42;;;2.22;;
25049;SDS011;13046;49.814;9.918;2023-07-30T08:27:59;2.50;;;2.33;;
25049;SDS011;13046;49.814;9.918;2023-07-30T08:30:25;2.63;;;2.42;;
25049;SDS011;13046;49.814;9.918;2023-07-30T08:32:51;3.67;;;1.92;;
25049;SDS011;13046;49.814;9.918;2023-07-30T08:35:17;2.50;;;2.30;;
25049;SDS011;13046;49.814;9.918;2023-07-30T08:37:43;2.92;;;1.95;;
25049;SDS011;13046;49.814;9.918;2023-07-30T08:40:10;3.22;;;2.22;;
25049;SDS011;13046;49.814;9.918;2023-07-30T08:42:36;1.95;;;1.80;;
25049;SDS011;13046;49.814;9.918;2023-07-30T08:45:04;4.32;;;1.90;;
25049;SDS011;13046;49.814;9.918;2023-07-30T08:47:32;2.65;;;1.95;;
25049;SDS011;13046;49.814;9.918;2023-07-30T08:49:58;1.70;;;1.60;;
25049;SDS011;13046;49.814;9.918;2023-07-30T08:52:24;2.38;;;2.17;;
25049;SDS011;13046;49.814;9.918;2023-07-30T08:54:50;2.15;;;1.65;;
25049;SDS011;13046;49.814;9.918;2023-07-30T08:57:17;3.40;;;2.13;;
25049;SDS011;13046;49.814;9.918;2023-07-30T08:59:47;5.63;;;2.10;;
25049;SDS011;13046;49.814;9.918;2023-07-30T09:02:18;2.00;;;1.70;;
25049;SDS011;13046;49.814;9.918;2023-07-30T09:04:47;2.65;;;2.05;;
25049;SDS011;13046;49.814;9.918;2023-07-30T09:07:13;2.97;;;1.55;;
25049;SDS011;13046;49.814;9.918;2023-07-30T09:09:40;3.25;;;2.95;;
25049;SDS011;13046;49.814;9.918;2023-07-30T09:12:12;4.00;;;3.08;;
25049;SDS011;13046;49.814;9.918;2023-07-30T09:14:39;2.83;;;2.63;;
25049;SDS011;13046;49.814;9.918;2023-07-30T09:17:05;3.72;;;1.75;;
25049;SDS011;13046;49.814;9.918;2023-07-30T09:19:34;1.77;;;1.60;;
25049;SDS011;13046;49.814;9.918;2023-07-30T09:22:05;2.13;;;1.92;;
25049;SDS011;13046;49.814;9.918;2023-07-30T09:24:31;1.92;;;1.83;;
25049;SDS011;13046;49.814;9.918;2023-07-30T09:26:57;1.80;;;1.70;;
25049;SDS011;13046;49.814;9.918;2023-07-30T09:29:26;3.22;;;2.00;;
25049;SDS011;13046;49.814;9.918;2023-07-30T09:31:53;3.22;;;1.73;;
25049;SDS011;13046;49.814;9.918;2023-07-30T09:34:20;1.73;;;1.50;;
25049;SDS011;13046;49.814;9.918;2023-07-30T09:36:46;1.60;;;1.50;;
25049;SDS011;13046;49.814;9.918;2023-07-30T09:39:17;2.05;;;1.95;;
25049;SDS011;13046;49.814;9.918;2023-07-30T09:41:44;4.90;;;1.83;;
25049;SDS011;13046;49.814;9.918;2023-07-30T09:44:10;2.90;;;2.00;;
25049;SDS011;13046;49.814;9.918;2023-07-30T09:46:43;2.72;;;2.47;;
25049;SDS011;13046;49.814;9.918;2023-07-30T09:49:10;2.30;;;2.10;;
25049;SDS011;13046;49.814;9.918;2023-07-30T09:51:37;2.15;;;1.95;;
25049;SDS011;13046;49.814;9.918;2023-07-30T09:54:08;1.88;;;1.77;;
25049;SDS011;13046;49.814;9.918;2023-07-30T09:56:36;2.97;;;2.22;;
25049;SDS011;13046;49.814;9.918;2023-07-30T09:59:03;1.95;;;1.83;;
25049;SDS011;13046;49.814;9.918;2023-07-30T10:01:29;1.70;;;1.60;;
25049;SDS011;13046;49.814;9.918;2023-07-30T10:03:56;2.50;;;1.70;;
25049;SDS011;13046;49.814;9.918;2023-07-30T10:06:27;1.40;;;1.30;;
25049;SDS011;13046;49.814;9.918;2023-07-30T10:08:55;2.05;;;1.50;;
25049;SDS011;13046;49.814;9.918;2023-07-30T10:11:21;1.60;;;1.50;;
25049;SDS011;13046;49.814;9.918;2023-07-30T10:13:48;2.92;;;1.42;;
25049;SDS011;13046;49.814;9.918;2023-07-30T10:16:14;17.40;;;1.95;;
25049;SDS011;13046;49.814;9.918;2023-07-30T10:18:41;1.95;;;1.80;;
25049;SDS011;13046;49.814;9.918;2023-07-30T10:21:08;1.42;;;1.33;;
25049;SDS011;13046;49.814;9.918;2023-07-30T10:23:34;3.17;;;1.50;;
25049;SDS011;13046;49.814;9.918;2023-07-30T10:26:09;1.90;;;1.80;;
25049;SDS011;13046;49.814;9.918;2023-07-30T10:28:36;2.30;;;2.10;;
25049;SDS011;13046;49.814;9.918;2023-07-30T10:31:05;3.17;;;2.50;;
25049;SDS011;13046;49.814;9.918;2023-07-30T10:33:51;2.13;;;1.80;;
25049;SDS011;13046;49.814;9.918;2023-07-30T10:36:31;2.00;;;1.80;;
25049;SDS011;13046;49.814;9.918;2023-07-30T10:39:10;2.00;;;1.90;;
25049;SDS011;13046;49.814;9.918;2023-07-30T10:41:37;2.65;;;2.45;;
25049;SDS011;13046;49.814;9.918;2023-07-30T10:44:03;2.70;;;2.50;;
25049;SDS011;13046;49.814;9.918;2023-07-30T10:46:29;5.53;;;2.60;;
25049;SDS011;13046;49.814;9.918;2023-07-30T10:48:55;3.35;;;2.30;;
25049;SDS011;13046;49.814;9.918;2023-07-30T10:51:21;3.05;;;2.72;;
25049;SDS011;13046;49.814;9.918;2023-07-30T10:53:49;2.42;;;2.22;;
25049;SDS011;13046;49.814;9.918;2023-07-30T10:56:16;3.03;;;2.83;;
25049;SDS011;13046;49.814;9.918;2023-07-30T10:58:43;3.25;;;2.95;;
25049;SDS011;13046;49.814;9.918;2023-07-30T11:01:09;3.00;;;2.80;;
25049;SDS011;13046;49.814;9.918;2023-07-30T11:03:36;2.75;;;2.35;;
25049;SDS011;13046;49.814;9.918;2023-07-30T11:06:03;3.53;;;2.65;;
25049;SDS011;13046;49.814;9.918;2023-07-30T11:08:40;2.80;;;2.60;;
25049;SDS011;13046;49.814;9.918;2023-07-30T11:11:07;3.20;;;3.00;;
25049;SDS011;13046;49.814;9.918;2023-07-30T11:13:37;2.42;;;2.22;;
25049;SDS011;13046;49.814;9.918;2023-07-30T11:16:07;5.43;;;2.97;;
25049;SDS011;13046;49.814;9.918;2023-07-30T11:18:33;5.50;;;3.70;;
25049;SDS011;13046;49.814;9.918;2023-07-30T11:21:06;5.10;;;2.58;;
25049;SDS011;13046;49.814;9.918;2023-07-30T11:23:32;3.33;;;3.08;;
25049;SDS011;13046;49.814;9.918;2023-07-30T11:26:00;2.80;;;2.60;;
25049;SDS011;13046;49.814;9.918;2023-07-30T11:28:26;3.45;;;2.75;;
25049;SDS011;13046;49.814;9.918;2023-07-30T11:30:53;5.50;;;2.35;;
25049;SDS011;13046;49.814;9.918;2023-07-30T11:33:19;2.03;;;1.70;;
25049;SDS011;13046;49.814;9.918;2023-07-30T11:35:45;3.13;;;1.63;;
25049;SDS011;13046;49.814;9.918;2023-07-30T11:38:12;1.65;;;1.50;;
25049;SDS011;13046;49.814;9.918;2023-07-30T11:40:39;2.67;;;1.58;;
25049;SDS011;13046;49.814;9.918;2023-07-30T11:43:05;3.38;;;1.52;;
25049;SDS011;13046;49.814;9.918;2023-07-30T11:45:31;1.58;;;1.42;;
25049;SDS011;13046;49.814;9.918;2023-07-30T11:48:10;1.70;;;1.60;;
25049;SDS011;13046;49.814;9.918;2023-07-30T11:50:49;1.58;;;1.48;;
25049;SDS011;13046;49.814;9.918;2023-07-30T11:53:15;2.13;;;1.92;;
25049;SDS011;13046;49.814;9.918;2023-07-30T11:55:42;1.38;;;1.27;;
25049;SDS011;13046;49.814;9.918;2023-07-30T11:58:09;2.70;;;1.45;;
25049;SDS011;13046;49.814;9.918;2023-07-30T12:00:39;1.52;;;1.42;;
25049;SDS011;13046;49.814;9.918;2023-07-30T12:03:06;3.88;;;1.30;;
25049;SDS011;13046;49.814;9.918;2023-07-30T12:05:33;1.73;;;1.63;;
25049;SDS011;13046;49.814;9.918;2023-07-30T12:08:02;2.92;;;1.15;;
25049;SDS011;13046;49.814;9.918;2023-07-30T12:10:44;2.58;;;1.05;;
25049;SDS011;13046;49.814;9.918;2023-07-30T12:13:11;2.25;;;1.30;;
25049;SDS011;13046;49.814;9.918;2023-07-30T12:15:37;1.17;;;1.08;;
25049;SDS011;13046;49.814;9.918;2023-07-30T12:18:03;1.52;;;1.42;;
25049;SDS011;13046;49.814;9.918;2023-07-30T12:20:29;1.48;;;1.10;;
25049;SDS011;13046;49.814;9.918;2023-07-30T12:22:55;1.10;;;1.00;;
25049;SDS011;13046;49.814;9.918;2023-07-30T12:25:22;1.40;;;1.08;;
25049;SDS011;13046;49.814;9.918;2023-07-30T12:27:48;1.00;;;0.85;;
25049;SDS011;13046;49.814;9.918;2023-07-30T12:30:14;0.90;;;0.90;;
25049;SDS011;13046;49.814;9.918;2023-07-30T12:32:40;1.10;;;1.00;;
25049;SDS011;13046;49.814;9.918;2023-07-30T12:35:07;1.45;;;1.33;;
25049;SDS011;13046;49.814;9.918;2023-07-30T12:37:33;2.22;;;1.15;;
25049;SDS011;13046;49.814;9.918;2023-07-30T12:40:00;1.98;;;1.15;;
25049;SDS011;13046;49.814;9.918;2023-07-30T12:42:26;8.95;;;1.27;;
25049;SDS011;13046;49.814;9.918;2023-07-30T12:44:52;1.48;;;1.17;;
25049;SDS011;13046;49.814;9.918;2023-07-30T12:47:18;1.58;;;0.98;;
25049;SDS011;13046;49.814;9.918;2023-07-30T12:49:46;1.92;;;1.25;;
25049;SDS011;13046;49.814;9.918;2023-07-30T12:52:12;2.53;;;1.35;;
25049;SDS011;13046;49.814;9.918;2023-07-30T12:54:38;5.43;;;2.55;;
25049;SDS011;13046;49.814;9.918;2023-07-30T12:57:04;2.38;;;1.13;;
25049;SDS011;13046;49.814;9.918;2023-07-30T12:59:30;1.50;;;1.10;;
25049;SDS011;13046;49.814;9.918;2023-07-30T13:01:57;1.55;;;1.05;;
25049;SDS011;13046;49.814;9.918;2023-07-30T13:04:24;2.30;;;2.03;;
25049;SDS011;13046;49.814;9.918;2023-07-30T13:06:53;2.22;;;1.50;;
25049;SDS011;13046;49.814;9.918;2023-07-30T13:09:19;3.78;;;1.38;;
25049;SDS011;13046;49.814;9.918;2023-07-30T13:11:46;2.95;;;1.48;;
25049;SDS011;13046;49.814;9.918;2023-07-30T13:14:12;1.25;;;0.90;;
25049;SDS011;13046;49.814;9.918;2023-07-30T13:16:39;3.92;;;1.70;;
25049;SDS011;13046;49.814;9.918;2023-07-30T13:19:05;2.28;;;1.20;;
25049;SDS011;13046;49.814;9.918;2023-07-30T13:21:31;2.10;;;1.80;;
25049;SDS011;13046;49.814;9.918;2023-07-30T13:23:57;11.40;;;2.45;;
25049;SDS011;13046;49.814;9.918;2023-07-30T13:26:23;4.18;;;2.50;;
25049;SDS011;13046;49.814;9.918;2023-07-30T13:28:49;2.45;;;1.45;;
25049;SDS011;13046;49.814;9.918;2023-07-30T13:31:15;4.57;;;1.75;;
25049;SDS011;13046;49.814;9.918;2023-07-30T13:33:41;1.75;;;1.60;;
25049;SDS011;13046;49.814;9.918;2023-07-30T13:36:07;4.88;;;2.05;;
25049;SDS011;13046;49.814;9.918;2023-07-30T13:38:33;2.92;;;1.65;;
25049;SDS011;13046;49.814;9.918;2023-07-30T13:40:59;3.70;;;2.05;;
25049;SDS011;13046;49.814;9.918;2023-07-30T13:43:25;3.53;;;2.95;;
25049;SDS011;13046;49.814;9.918;2023-07-30T13:45:51;1.95;;;1.40;;
25049;SDS011;13046;49.814;9.918;2023-07-30T13:48:19;1.90;;;1.55;;
25049;SDS011;13046;49.814;9.918;2023-07-30T13:50:45;3.08;;;1.55;;
25049;SDS011;13046;49.814;9.918;2023-07-30T13:53:11;2.35;;;1.65;;
25049;SDS011;13046;49.814;9.918;2023-07-30T13:55:37;7.32;;;3.25;;
25049;SDS011;13046;49.814;9.918;2023-07-30T13:58:03;1.73;;;1.52;;
25049;SDS011;13046;49.814;9.918;2023-07-30T14:00:29;2.30;;;1.30;;
25049;SDS011;13046;49.814;9.918;2023-07-30T14:02:55;5.90;;;2.67;;
25049;SDS011;13046;49.814;9.918;2023-07-30T14:05:21;3.13;;;1.58;;
25049;SDS011;13046;49.814;9.918;2023-07-30T14:07:48;3.25;;;1.50;;
25049;SDS011;13046;49.814;9.918;2023-07-30T14:10:16;3.35;;;1.65;;
25049;SDS011;13046;49.814;9.918;2023-07-30T14:12:42;5.25;;;1.85;;
25049;SDS011;13046;49.814;9.918;2023-07-30T14:15:08;3.80;;;1.63;;
25049;SDS011;13046;49.814;9.918;2023-07-30T14:17:34;3.13;;;1.35;;
25049;SDS011;13046;49.814;9.918;2023-07-30T14:20:00;1.83;;;1.67;;
25049;SDS011;13046;49.814;9.918;2023-07-30T14:22:27;1.98;;;1.60;;
25049;SDS011;13046;49.814;9.918;2023-07-30T14:24:53;6.72;;;1.55;;
25049;SDS011;13046;49.814;9.918;2023-07-30T14:27:19;4.53;;;1.58;;
25049;SDS011;13046;49.814;9.918;2023-07-30T14:29:45;3.05;;;1.50;;
25049;SDS011;13046;49.814;9.918;2023-07-30T14:32:11;1.60;;;1.40;;
25049;SDS011;13046;49.814;9.918;2023-07-30T14:34:37;11.63;;;1.55;;
25049;SDS011;13046;49.814;9.918;2023-07-30T14:37:03;3.20;;;1.38;;
25049;SDS011;13046;49.814;9.918;2023-07-30T14:39:29;3.13;;;1.45;;
25049;SDS011;13046;49.814;9.918;2023-07-30T14:41:55;3.17;;;1.67;;
25049;SDS011;13046;49.814;9.918;2023-07-30T14:44:22;3.15;;;2.10;;